Penn Valley, CA

11:38 PM PDT on September 21, 2014 (GMT -0700)
Auburn Municipal | Change Station
CLOSE
Current Station
Airport
Location: Auburn,
Elevation: 1532 ft
Nearby Weather Stations

Elev 1532 ft 38.95 °N, 121.09 °W | Updated 23 minutes ago

Clear
Clear
64 °F
Feels Like 64 °F
N
5
Wind Variable Wind from East

Today
High -- | Low -- °F
--% Chance of Precip.
Yesterday
High -- | Low -- °F
Precip. -- in
6:51 AM 7:03 PM
Waning Crescent, 4% visible
Pressure 30.00 in
Visibility 2.5 miles
Clouds Clear
Dew Point 57 °F
Humidity 77%
Rainfall 0.00 in
Snow Depth 0 in , 1 in , 1 in
UV 0 out of 12
Pollen 5.20 out of 12
Ozone Good
Flu Activity Not available.
METAR KAUN 220615Z AUTO 09004KT 2 1/2SM CLR 18/14 A3000 RMK AO1

More Conditions Fewer Conditions

Pressure 30.00 in
Visibility 2.5 miles
Clouds Clear
Dew Point 57 °F
Humidity 77%
Rainfall 0.00 in
Snow Depth 0 in , 1 in , 1 in
UV 0 out of 12
Pollen 5.20 out of 12
Ozone Good
Flu Activity Not available.
METAR KAUN 220615Z AUTO 09004KT 2 1/2SM CLR 18/14 A3000 RMK AO1

More Conditions Fewer Conditions

10-Day Weather Forecast

Almanac

Astronomy

Sep. 21, 2014 Rise Set
Actual Time 6:51 AM PDT 7:03 PM PDT
Civil Twilight 6:24 AM PDT 7:29 PM PDT
Nautical Twilight 5:53 AM PDT 8:01 PM PDT
Astronomical Twilight 5:21 AM PDT 8:33 PM PDT
Moon 4:30 AM PDT (9/21) 5:41 PM PDT (9/21)
Length of Visible Light 13h 05m
Length of Day
12h 11m
Tomorrow will be 2m 32s shorter.
Waning Crescent, 4% of the Moon is Illuminated
Sep 22
Waning Crescent
Sep 24
New
Oct 1
First Quarter
Oct 8
Full
Oct 15
Last Quarter

Community

WunderPhotos

Upload Photos

1,755,392 photos uploaded!

Nearby

Air Quality

  Air Quality AQ Index Pollutant
Yesterday Unhealthy
PM2.5
Yesterday Good
OZONE
Current Good
OZONE

Snow Depth

Station Depth Elevation
Hagan's Meadow 0 in 8000 ft
Spratt Creek 1 in 6200 ft
Echo Peak 1 in 7800 ft
Rubicon #2 0 in 7500 ft
Monitor Pass 0 in 8350 ft

Earthquake Activity

City Distance Mag. Time & Date
Sonoma, California 88 miles 2.7 1:17 PM PDT
2014-09-21
Cloverdale, California 94 miles 2.5 9:15 PM PDT
2014-09-20
Livermore, California 109 miles 2.6 3:37 AM PDT
2014-09-19
Minimum magnitude displayed is 2.5.

Coastal Water Temperatures

Place Temperature
No Stations Reporting

Nearby Weather Stations